sensor_id;sensor_type;location;lat;lon;timestamp;temperature;humidity
19781;DHT22;10050;55.492;13.506;2023-06-01T00:00:01;14.60;99.90
19781;DHT22;10050;55.492;13.506;2023-06-01T00:02:27;14.60;99.90
19781;DHT22;10050;55.492;13.506;2023-06-01T00:04:53;14.50;99.90
19781;DHT22;10050;55.492;13.506;2023-06-01T00:07:19;14.50;99.90
19781;DHT22;10050;55.492;13.506;2023-06-01T00:09:44;14.50;99.90
19781;DHT22;10050;55.492;13.506;2023-06-01T00:12:10;14.50;99.90
19781;DHT22;10050;55.492;13.506;2023-06-01T00:14:36;14.40;99.90
19781;DHT22;10050;55.492;13.506;2023-06-01T00:17:02;14.40;99.90
19781;DHT22;10050;55.492;13.506;2023-06-01T00:19:28;14.40;99.90
19781;DHT22;10050;55.492;13.506;2023-06-01T00:21:54;14.40;99.90
19781;DHT22;10050;55.492;13.506;2023-06-01T00:24:21;14.40;99.90
19781;DHT22;10050;55.492;13.506;2023-06-01T00:26:47;14.30;99.90
19781;DHT22;10050;55.492;13.506;2023-06-01T00:29:13;14.30;99.90
19781;DHT22;10050;55.492;13.506;2023-06-01T00:31:40;14.30;99.90
19781;DHT22;10050;55.492;13.506;2023-06-01T00:34:05;14.30;99.90
19781;DHT22;10050;55.492;13.506;2023-06-01T00:36:33;14.20;99.90
19781;DHT22;10050;55.492;13.506;2023-06-01T00:38:58;14.10;99.90
19781;DHT22;10050;55.492;13.506;2023-06-01T00:41:28;14.10;99.90
19781;DHT22;10050;55.492;13.506;2023-06-01T00:43:54;14.10;99.90
19781;DHT22;10050;55.492;13.506;2023-06-01T00:46:20;14.10;99.90
19781;DHT22;10050;55.492;13.506;2023-06-01T00:48:46;14.00;99.90
19781;DHT22;10050;55.492;13.506;2023-06-01T00:51:12;14.00;99.90
19781;DHT22;10050;55.492;13.506;2023-06-01T00:53:40;14.00;99.90
19781;DHT22;10050;55.492;13.506;2023-06-01T00:56:07;14.00;99.90
19781;DHT22;10050;55.492;13.506;2023-06-01T00:58:33;14.00;99.90
19781;DHT22;10050;55.492;13.506;2023-06-01T01:00:58;13.90;99.90
19781;DHT22;10050;55.492;13.506;2023-06-01T01:03:24;14.00;99.90
19781;DHT22;10050;55.492;13.506;2023-06-01T01:05:57;13.90;99.90
19781;DHT22;10050;55.492;13.506;2023-06-01T01:08:37;13.80;99.90
19781;DHT22;10050;55.492;13.506;2023-06-01T01:11:26;13.70;99.90
19781;DHT22;10050;55.492;13.506;2023-06-01T01:14:19;13.80;99.90
19781;DHT22;10050;55.492;13.506;2023-06-01T01:16:52;13.70;99.90
19781;DHT22;10050;55.492;13.506;2023-06-01T01:19:52;13.70;99.90
19781;DHT22;10050;55.492;13.506;2023-06-01T01:28:32;13.60;99.90
19781;DHT22;10050;55.492;13.506;2023-06-01T01:30:59;13.60;99.90
19781;DHT22;10050;55.492;13.506;2023-06-01T01:33:27;13.50;99.90
19781;DHT22;10050;55.492;13.506;2023-06-01T01:35:54;13.50;99.90
19781;DHT22;10050;55.492;13.506;2023-06-01T01:38:21;13.50;99.90
19781;DHT22;10050;55.492;13.506;2023-06-01T01:40:46;13.50;99.90
19781;DHT22;10050;55.492;13.506;2023-06-01T01:43:12;13.40;99.90
19781;DHT22;10050;55.492;13.506;2023-06-01T01:45:38;13.40;99.90
19781;DHT22;10050;55.492;13.506;2023-06-01T01:48:22;13.40;99.90
19781;DHT22;10050;55.492;13.506;2023-06-01T01:50:55;13.40;99.90
19781;DHT22;10050;55.492;13.506;2023-06-01T01:53:23;13.30;99.90
19781;DHT22;10050;55.492;13.506;2023-06-01T01:55:49;13.30;99.90
19781;DHT22;10050;55.492;13.506;2023-06-01T01:58:16;13.30;99.90
19781;DHT22;10050;55.492;13.506;2023-06-01T02:00:43;13.30;99.90
19781;DHT22;10050;55.492;13.506;2023-06-01T02:03:16;13.30;99.90
19781;DHT22;10050;55.492;13.506;2023-06-01T02:05:42;13.20;99.90
19781;DHT22;10050;55.492;13.506;2023-06-01T02:08:08;13.20;99.90
19781;DHT22;10050;55.492;13.506;2023-06-01T02:10:34;13.20;99.90
19781;DHT22;10050;55.492;13.506;2023-06-01T02:13:03;13.10;99.90
19781;DHT22;10050;55.492;13.506;2023-06-01T02:15:29;13.10;99.90
19781;DHT22;10050;55.492;13.506;2023-06-01T02:17:55;13.10;99.90
19781;DHT22;10050;55.492;13.506;2023-06-01T02:20:20;13.10;99.90
19781;DHT22;10050;55.492;13.506;2023-06-01T02:22:46;13.00;99.90
19781;DHT22;10050;55.492;13.506;2023-06-01T02:25:12;13.00;99.90
19781;DHT22;10050;55.492;13.506;2023-06-01T02:27:37;13.00;99.90
19781;DHT22;10050;55.492;13.506;2023-06-01T02:30:04;13.00;99.90
19781;DHT22;10050;55.492;13.506;2023-06-01T02:32:32;13.00;99.90
19781;DHT22;10050;55.492;13.506;2023-06-01T02:34:58;12.90;99.90
19781;DHT22;10050;55.492;13.506;2023-06-01T02:37:23;12.90;99.90
19781;DHT22;10050;55.492;13.506;2023-06-01T02:39:49;12.90;99.90
19781;DHT22;10050;55.492;13.506;2023-06-01T02:42:14;12.80;99.90
19781;DHT22;10050;55.492;13.506;2023-06-01T02:44:40;12.80;99.90
19781;DHT22;10050;55.492;13.506;2023-06-01T02:47:06;12.90;99.90
19781;DHT22;10050;55.492;13.506;2023-06-01T02:49:32;12.90;99.90
19781;DHT22;10050;55.492;13.506;2023-06-01T02:51:58;12.90;99.90
19781;DHT22;10050;55.492;13.506;2023-06-01T02:54:23;12.90;99.90
19781;DHT22;10050;55.492;13.506;2023-06-01T02:56:49;12.90;99.90
19781;DHT22;10050;55.492;13.506;2023-06-01T02:59:15;12.90;99.90
19781;DHT22;10050;55.492;13.506;2023-06-01T03:01:41;12.90;99.90
19781;DHT22;10050;55.492;13.506;2023-06-01T03:04:06;12.90;99.90
19781;DHT22;10050;55.492;13.506;2023-06-01T03:06:33;12.90;99.90
19781;DHT22;10050;55.492;13.506;2023-06-01T03:09:01;12.90;99.90
19781;DHT22;10050;55.492;13.506;2023-06-01T03:11:27;12.90;99.90
19781;DHT22;10050;55.492;13.506;2023-06-01T03:13:53;12.90;99.90
19781;DHT22;10050;55.492;13.506;2023-06-01T03:16:18;13.00;99.90
19781;DHT22;10050;55.492;13.506;2023-06-01T03:18:44;13.00;99.90
19781;DHT22;10050;55.492;13.506;2023-06-01T03:21:10;13.00;99.90
19781;DHT22;10050;55.492;13.506;2023-06-01T03:23:36;13.00;99.90
19781;DHT22;10050;55.492;13.506;2023-06-01T03:26:02;13.00;99.90
19781;DHT22;10050;55.492;13.506;2023-06-01T03:28:29;13.10;99.90
19781;DHT22;10050;55.492;13.506;2023-06-01T03:30:55;13.10;99.90
19781;DHT22;10050;55.492;13.506;2023-06-01T03:33:21;13.10;99.90
19781;DHT22;10050;55.492;13.506;2023-06-01T03:35:47;13.10;99.90
19781;DHT22;10050;55.492;13.506;2023-06-01T03:38:15;13.10;99.90
19781;DHT22;10050;55.492;13.506;2023-06-01T03:40:40;13.20;99.90
19781;DHT22;10050;55.492;13.506;2023-06-01T03:43:06;13.20;99.90
19781;DHT22;10050;55.492;13.506;2023-06-01T03:45:32;13.30;99.90
19781;DHT22;10050;55.492;13.506;2023-06-01T03:47:58;13.20;99.90
19781;DHT22;10050;55.492;13.506;2023-06-01T03:50:24;13.20;99.90
19781;DHT22;10050;55.492;13.506;2023-06-01T03:52:49;13.20;99.90
19781;DHT22;10050;55.492;13.506;2023-06-01T03:55:15;13.20;99.90
19781;DHT22;10050;55.492;13.506;2023-06-01T03:57:41;13.30;99.90
19781;DHT22;10050;55.492;13.506;2023-06-01T04:00:07;13.30;99.90
19781;DHT22;10050;55.492;13.506;2023-06-01T04:05:20;13.30;99.90
19781;DHT22;10050;55.492;13.506;2023-06-01T04:07:50;13.30;99.90
19781;DHT22;10050;55.492;13.506;2023-06-01T04:10:17;13.30;99.90
19781;DHT22;10050;55.492;13.506;2023-06-01T04:12:43;13.30;99.90
19781;DHT22;10050;55.492;13.506;2023-06-01T04:15:11;13.30;99.90
19781;DHT22;10050;55.492;13.506;2023-06-01T04:17:37;13.30;99.90
19781;DHT22;10050;55.492;13.506;2023-06-01T04:20:05;13.20;99.90
19781;DHT22;10050;55.492;13.506;2023-06-01T04:22:38;13.20;99.90
19781;DHT22;10050;55.492;13.506;2023-06-01T04:25:06;13.30;99.90
19781;DHT22;10050;55.492;13.506;2023-06-01T04:27:34;13.30;99.90
19781;DHT22;10050;55.492;13.506;2023-06-01T04:30:06;13.30;99.90
19781;DHT22;10050;55.492;13.506;2023-06-01T04:32:36;13.30;99.90
19781;DHT22;10050;55.492;13.506;2023-06-01T04:35:04;13.30;99.90
19781;DHT22;10050;55.492;13.506;2023-06-01T04:37:32;13.40;99.90
19781;DHT22;10050;55.492;13.506;2023-06-01T04:40:02;13.30;99.90
19781;DHT22;10050;55.492;13.506;2023-06-01T04:42:32;13.30;99.90
19781;DHT22;10050;55.492;13.506;2023-06-01T04:44:59;13.30;99.90
19781;DHT22;10050;55.492;13.506;2023-06-01T04:47:25;13.40;99.90
19781;DHT22;10050;55.492;13.506;2023-06-01T04:49:53;13.50;99.90
19781;DHT22;10050;55.492;13.506;2023-06-01T04:52:18;13.50;99.90
19781;DHT22;10050;55.492;13.506;2023-06-01T04:54:45;13.50;99.90
19781;DHT22;10050;55.492;13.506;2023-06-01T04:57:11;13.50;99.90
19781;DHT22;10050;55.492;13.506;2023-06-01T04:59:40;13.60;99.90
19781;DHT22;10050;55.492;13.506;2023-06-01T05:02:07;13.60;99.90
19781;DHT22;10050;55.492;13.506;2023-06-01T05:04:32;13.60;99.90
19781;DHT22;10050;55.492;13.506;2023-06-01T05:06:58;13.60;99.90
19781;DHT22;10050;55.492;13.506;2023-06-01T05:09:24;13.50;99.90
19781;DHT22;10050;55.492;13.506;2023-06-01T05:11:50;13.60;99.90
19781;DHT22;10050;55.492;13.506;2023-06-01T05:14:16;13.70;99.90
19781;DHT22;10050;55.492;13.506;2023-06-01T05:16:42;13.70;99.90
19781;DHT22;10050;55.492;13.506;2023-06-01T05:19:08;13.80;99.90
19781;DHT22;10050;55.492;13.506;2023-06-01T05:21:33;13.70;99.90
19781;DHT22;10050;55.492;13.506;2023-06-01T05:23:59;13.70;99.90
19781;DHT22;10050;55.492;13.506;2023-06-01T05:26:24;13.80;99.90
19781;DHT22;10050;55.492;13.506;2023-06-01T05:28:50;13.80;99.90
19781;DHT22;10050;55.492;13.506;2023-06-01T05:31:16;13.80;99.90
19781;DHT22;10050;55.492;13.506;2023-06-01T05:33:42;13.80;99.90
19781;DHT22;10050;55.492;13.506;2023-06-01T05:36:08;13.90;99.90
19781;DHT22;10050;55.492;13.506;2023-06-01T05:38:33;13.80;99.90
19781;DHT22;10050;55.492;13.506;2023-06-01T05:40:59;13.90;99.90
19781;DHT22;10050;55.492;13.506;2023-06-01T05:43:25;13.90;99.90
19781;DHT22;10050;55.492;13.506;2023-06-01T05:45:50;14.00;99.90
19781;DHT22;10050;55.492;13.506;2023-06-01T05:48:16;14.00;99.90
19781;DHT22;10050;55.492;13.506;2023-06-01T05:50:42;14.00;99.90
19781;DHT22;10050;55.492;13.506;2023-06-01T05:53:08;14.10;99.90
19781;DHT22;10050;55.492;13.506;2023-06-01T05:55:35;14.20;99.90
19781;DHT22;10050;55.492;13.506;2023-06-01T05:58:00;14.20;99.90
19781;DHT22;10050;55.492;13.506;2023-06-01T06:00:26;14.30;99.90
19781;DHT22;10050;55.492;13.506;2023-06-01T06:02:52;14.40;99.90
19781;DHT22;10050;55.492;13.506;2023-06-01T06:05:17;14.30;99.90
19781;DHT22;10050;55.492;13.506;2023-06-01T06:07:43;14.30;99.90
19781;DHT22;10050;55.492;13.506;2023-06-01T06:10:09;14.40;99.90
19781;DHT22;10050;55.492;13.506;2023-06-01T06:12:35;14.60;99.90
19781;DHT22;10050;55.492;13.506;2023-06-01T06:15:01;14.70;99.90
19781;DHT22;10050;55.492;13.506;2023-06-01T06:17:26;14.70;99.90
19781;DHT22;10050;55.492;13.506;2023-06-01T06:19:52;14.70;99.90
19781;DHT22;10050;55.492;13.506;2023-06-01T06:22:17;14.70;99.90
19781;DHT22;10050;55.492;13.506;2023-06-01T06:24:43;14.70;99.90
19781;DHT22;10050;55.492;13.506;2023-06-01T06:27:09;14.80;99.90
19781;DHT22;10050;55.492;13.506;2023-06-01T06:29:35;14.90;99.90
19781;DHT22;10050;55.492;13.506;2023-06-01T06:32:00;15.00;99.90
19781;DHT22;10050;55.492;13.506;2023-06-01T06:34:26;15.00;99.90
19781;DHT22;10050;55.492;13.506;2023-06-01T06:36:58;15.00;99.90
19781;DHT22;10050;55.492;13.506;2023-06-01T06:39:24;15.10;99.90
19781;DHT22;10050;55.492;13.506;2023-06-01T06:41:50;15.10;99.90
19781;DHT22;10050;55.492;13.506;2023-06-01T06:44:16;15.10;99.90
19781;DHT22;10050;55.492;13.506;2023-06-01T06:46:41;15.00;99.90
19781;DHT22;10050;55.492;13.506;2023-06-01T06:49:07;15.10;99.90
19781;DHT22;10050;55.492;13.506;2023-06-01T06:51:37;15.20;99.90
19781;DHT22;10050;55.492;13.506;2023-06-01T06:54:03;15.20;99.90
19781;DHT22;10050;55.492;13.506;2023-06-01T06:56:31;15.40;99.90
19781;DHT22;10050;55.492;13.506;2023-06-01T06:58:56;15.30;99.90
19781;DHT22;10050;55.492;13.506;2023-06-01T07:01:22;15.30;99.90
19781;DHT22;10050;55.492;13.506;2023-06-01T07:03:51;15.30;99.90
19781;DHT22;10050;55.492;13.506;2023-06-01T07:06:17;15.40;99.90
19781;DHT22;10050;55.492;13.506;2023-06-01T07:08:43;15.90;99.90
19781;DHT22;10050;55.492;13.506;2023-06-01T07:11:09;16.20;99.90
19781;DHT22;10050;55.492;13.506;2023-06-01T07:13:35;16.30;99.90
19781;DHT22;10050;55.492;13.506;2023-06-01T07:16:02;16.40;99.90
19781;DHT22;10050;55.492;13.506;2023-06-01T07:18:30;16.60;99.90
19781;DHT22;10050;55.492;13.506;2023-06-01T07:20:57;16.50;99.90
19781;DHT22;10050;55.492;13.506;2023-06-01T07:23:23;16.70;99.90
19781;DHT22;10050;55.492;13.506;2023-06-01T07:25:48;17.20;99.90
19781;DHT22;10050;55.492;13.506;2023-06-01T07:28:15;17.40;99.90
19781;DHT22;10050;55.492;13.506;2023-06-01T07:30:41;17.40;99.90
19781;DHT22;10050;55.492;13.506;2023-06-01T07:33:07;17.30;99.90
19781;DHT22;10050;55.492;13.506;2023-06-01T07:35:33;17.40;99.90
19781;DHT22;10050;55.492;13.506;2023-06-01T07:37:59;17.70;99.90
19781;DHT22;10050;55.492;13.506;2023-06-01T07:40:25;17.70;99.90
19781;DHT22;10050;55.492;13.506;2023-06-01T07:42:51;17.60;99.90
19781;DHT22;10050;55.492;13.506;2023-06-01T07:45:17;17.50;99.90
19781;DHT22;10050;55.492;13.506;2023-06-01T07:47:42;17.50;99.90
19781;DHT22;10050;55.492;13.506;2023-06-01T07:50:08;18.00;99.90
19781;DHT22;10050;55.492;13.506;2023-06-01T07:52:34;18.70;99.90
19781;DHT22;10050;55.492;13.506;2023-06-01T07:55:00;19.00;99.90
19781;DHT22;10050;55.492;13.506;2023-06-01T07:57:26;18.90;99.90
19781;DHT22;10050;55.492;13.506;2023-06-01T07:59:52;18.60;99.90
19781;DHT22;10050;55.492;13.506;2023-06-01T08:02:18;18.50;99.90
19781;DHT22;10050;55.492;13.506;2023-06-01T08:04:48;18.80;99.90
19781;DHT22;10050;55.492;13.506;2023-06-01T08:07:14;19.10;99.90
19781;DHT22;10050;55.492;13.506;2023-06-01T08:09:41;19.30;99.90
19781;DHT22;10050;55.492;13.506;2023-06-01T08:12:08;19.50;99.90
19781;DHT22;10050;55.492;13.506;2023-06-01T08:14:36;19.80;99.90
19781;DHT22;10050;55.492;13.506;2023-06-01T08:17:03;19.80;99.90
19781;DHT22;10050;55.492;13.506;2023-06-01T08:19:33;19.70;99.90
19781;DHT22;10050;55.492;13.506;2023-06-01T08:21:59;19.70;99.90
19781;DHT22;10050;55.492;13.506;2023-06-01T08:24:25;20.00;99.90
19781;DHT22;10050;55.492;13.506;2023-06-01T08:26:54;20.30;99.90
19781;DHT22;10050;55.492;13.506;2023-06-01T08:29:21;20.60;99.90
19781;DHT22;10050;55.492;13.506;2023-06-01T08:31:47;20.70;99.90
19781;DHT22;10050;55.492;13.506;2023-06-01T08:34:12;20.40;99.90
19781;DHT22;10050;55.492;13.506;2023-06-01T08:36:38;20.50;99.90
19781;DHT22;10050;55.492;13.506;2023-06-01T08:39:23;20.70;99.90
19781;DHT22;10050;55.492;13.506;2023-06-01T08:44:41;21.00;99.90
19781;DHT22;10050;55.492;13.506;2023-06-01T08:47:08;21.20;99.90
19781;DHT22;10050;55.492;13.506;2023-06-01T08:49:35;21.40;99.90
19781;DHT22;10050;55.492;13.506;2023-06-01T08:52:14;21.50;99.90
19781;DHT22;10050;55.492;13.506;2023-06-01T08:54:44;21.40;99.90
19781;DHT22;10050;55.492;13.506;2023-06-01T08:57:11;21.60;99.90
19781;DHT22;10050;55.492;13.506;2023-06-01T08:59:37;21.80;99.90
19781;DHT22;10050;55.492;13.506;2023-06-01T09:02:05;21.90;99.90
19781;DHT22;10050;55.492;13.506;2023-06-01T09:04:32;21.90;99.90
19781;DHT22;10050;55.492;13.506;2023-06-01T09:07:00;21.70;99.90
19781;DHT22;10050;55.492;13.506;2023-06-01T09:09:27;21.80;99.90
19781;DHT22;10050;55.492;13.506;2023-06-01T09:15:10;22.10;99.90
19781;DHT22;10050;55.492;13.506;2023-06-01T09:17:37;22.30;99.90
19781;DHT22;10050;55.492;13.506;2023-06-01T09:20:03;22.40;99.90
19781;DHT22;10050;55.492;13.506;2023-06-01T09:25:05;22.50;99.90
19781;DHT22;10050;55.492;13.506;2023-06-01T09:27:46;22.60;99.90
19781;DHT22;10050;55.492;13.506;2023-06-01T09:30:13;22.20;99.90
19781;DHT22;10050;55.492;13.506;2023-06-01T09:32:39;22.20;99.90
19781;DHT22;10050;55.492;13.506;2023-06-01T09:35:05;22.40;99.90
19781;DHT22;10050;55.492;13.506;2023-06-01T09:37:33;22.50;99.90
19781;DHT22;10050;55.492;13.506;2023-06-01T09:40:00;22.20;99.90
19781;DHT22;10050;55.492;13.506;2023-06-01T09:42:35;22.20;99.90
19781;DHT22;10050;55.492;13.506;2023-06-01T09:45:15;22.10;99.90
19781;DHT22;10050;55.492;13.506;2023-06-01T09:47:44;22.30;99.90
19781;DHT22;10050;55.492;13.506;2023-06-01T09:50:09;22.60;99.90
19781;DHT22;10050;55.492;13.506;2023-06-01T09:52:36;22.80;99.90
19781;DHT22;10050;55.492;13.506;2023-06-01T09:55:07;22.90;99.90
19781;DHT22;10050;55.492;13.506;2023-06-01T09:57:33;22.90;99.90
19781;DHT22;10050;55.492;13.506;2023-06-01T10:00:01;23.20;99.90
19781;DHT22;10050;55.492;13.506;2023-06-01T10:02:29;23.20;99.90
19781;DHT22;10050;55.492;13.506;2023-06-01T10:04:57;23.30;99.90
19781;DHT22;10050;55.492;13.506;2023-06-01T10:07:26;23.70;99.90
19781;DHT22;10050;55.492;13.506;2023-06-01T10:09:57;23.70;99.90
19781;DHT22;10050;55.492;13.506;2023-06-01T10:12:24;23.70;99.90
19781;DHT22;10050;55.492;13.506;2023-06-01T10:14:53;23.60;99.90
19781;DHT22;10050;55.492;13.506;2023-06-01T10:17:19;23.60;99.90
19781;DHT22;10050;55.492;13.506;2023-06-01T10:19:45;23.70;99.90
19781;DHT22;10050;55.492;13.506;2023-06-01T10:22:11;23.80;99.90
19781;DHT22;10050;55.492;13.506;2023-06-01T10:24:38;24.00;99.90
19781;DHT22;10050;55.492;13.506;2023-06-01T10:27:19;23.90;99.90
19781;DHT22;10050;55.492;13.506;2023-06-01T10:29:48;23.80;99.90
19781;DHT22;10050;55.492;13.506;2023-06-01T10:32:40;23.90;99.90
19781;DHT22;10050;55.492;13.506;2023-06-01T10:35:09;23.80;99.90
19781;DHT22;10050;55.492;13.506;2023-06-01T10:40:37;23.90;99.90
19781;DHT22;10050;55.492;13.506;2023-06-01T10:43:03;24.00;99.90
19781;DHT22;10050;55.492;13.506;2023-06-01T10:45:37;23.70;99.90
19781;DHT22;10050;55.492;13.506;2023-06-01T10:48:08;24.00;99.90
19781;DHT22;10050;55.492;13.506;2023-06-01T10:50:36;24.10;99.90
19781;DHT22;10050;55.492;13.506;2023-06-01T10:58:42;23.80;99.90
19781;DHT22;10050;55.492;13.506;2023-06-01T11:01:08;23.90;99.90
19781;DHT22;10050;55.492;13.506;2023-06-01T11:03:46;23.90;99.90
19781;DHT22;10050;55.492;13.506;2023-06-01T11:06:28;23.70;99.90
19781;DHT22;10050;55.492;13.506;2023-06-01T11:08:56;23.60;99.90
19781;DHT22;10050;55.492;13.506;2023-06-01T11:11:22;23.70;99.90
19781;DHT22;10050;55.492;13.506;2023-06-01T11:14:08;23.40;99.90
19781;DHT22;10050;55.492;13.506;2023-06-01T11:16:35;23.60;99.90
19781;DHT22;10050;55.492;13.506;2023-06-01T11:19:02;23.70;99.90
19781;DHT22;10050;55.492;13.506;2023-06-01T11:24:03;23.50;99.90
19781;DHT22;10050;55.492;13.506;2023-06-01T11:29:10;23.60;99.90
19781;DHT22;10050;55.492;13.506;2023-06-01T11:31:48;23.60;99.90
19781;DHT22;10050;55.492;13.506;2023-06-01T11:34:16;23.50;99.90
19781;DHT22;10050;55.492;13.506;2023-06-01T11:36:46;23.30;99.90
19781;DHT22;10050;55.492;13.506;2023-06-01T11:39:26;23.50;99.90
19781;DHT22;10050;55.492;13.506;2023-06-01T11:44:30;23.50;99.90
19781;DHT22;10050;55.492;13.506;2023-06-01T11:46:57;23.40;99.90
19781;DHT22;10050;55.492;13.506;2023-06-01T11:49:24;23.20;99.90
19781;DHT22;10050;55.492;13.506;2023-06-01T11:51:51;23.30;99.90
19781;DHT22;10050;55.492;13.506;2023-06-01T11:54:22;23.30;99.90
19781;DHT22;10050;55.492;13.506;2023-06-01T11:56:48;23.30;99.90
19781;DHT22;10050;55.492;13.506;2023-06-01T11:59:13;23.30;99.90
19781;DHT22;10050;55.492;13.506;2023-06-01T12:01:46;23.50;99.90
19781;DHT22;10050;55.492;13.506;2023-06-01T12:04:17;23.30;99.90
19781;DHT22;10050;55.492;13.506;2023-06-01T12:06:44;23.20;99.90
19781;DHT22;10050;55.492;13.506;2023-06-01T12:09:11;23.30;99.90
19781;DHT22;10050;55.492;13.506;2023-06-01T12:11:37;23.40;99.90
19781;DHT22;10050;55.492;13.506;2023-06-01T12:14:04;23.50;99.90
19781;DHT22;10050;55.492;13.506;2023-06-01T12:16:57;23.50;99.90
19781;DHT22;10050;55.492;13.506;2023-06-01T12:19:24;23.70;99.90
19781;DHT22;10050;55.492;13.506;2023-06-01T12:21:53;23.60;99.90
19781;DHT22;10050;55.492;13.506;2023-06-01T12:24:32;23.70;99.90
19781;DHT22;10050;55.492;13.506;2023-06-01T12:26:59;23.70;99.90
19781;DHT22;10050;55.492;13.506;2023-06-01T12:32:00;23.80;99.90
19781;DHT22;10050;55.492;13.506;2023-06-01T12:34:25;23.70;99.90
19781;DHT22;10050;55.492;13.506;2023-06-01T12:36:51;23.80;99.90
19781;DHT22;10050;55.492;13.506;2023-06-01T12:39:34;23.90;99.90
19781;DHT22;10050;55.492;13.506;2023-06-01T12:42:03;24.00;99.90
19781;DHT22;10050;55.492;13.506;2023-06-01T12:44:30;24.10;99.90
19781;DHT22;10050;55.492;13.506;2023-06-01T12:46:57;24.10;99.90
19781;DHT22;10050;55.492;13.506;2023-06-01T12:49:24;24.30;99.90
19781;DHT22;10050;55.492;13.506;2023-06-01T12:51:50;24.30;99.90
19781;DHT22;10050;55.492;13.506;2023-06-01T12:54:16;24.50;99.90
19781;DHT22;10050;55.492;13.506;2023-06-01T12:56:42;24.50;99.90
19781;DHT22;10050;55.492;13.506;2023-06-01T12:59:09;24.40;99.90
19781;DHT22;10050;55.492;13.506;2023-06-01T13:01:34;24.50;99.90
19781;DHT22;10050;55.492;13.506;2023-06-01T13:04:00;24.50;99.90
19781;DHT22;10050;55.492;13.506;2023-06-01T13:06:28;24.50;99.90
19781;DHT22;10050;55.492;13.506;2023-06-01T13:08:54;24.40;99.90
19781;DHT22;10050;55.492;13.506;2023-06-01T13:11:21;24.50;99.90
19781;DHT22;10050;55.492;13.506;2023-06-01T13:13:48;24.60;99.90
19781;DHT22;10050;55.492;13.506;2023-06-01T13:16:14;24.50;99.90
19781;DHT22;10050;55.492;13.506;2023-06-01T13:18:41;24.30;99.90
19781;DHT22;10050;55.492;13.506;2023-06-01T13:21:07;24.30;99.90
19781;DHT22;10050;55.492;13.506;2023-06-01T13:23:36;24.30;99.90
19781;DHT22;10050;55.492;13.506;2023-06-01T13:26:01;24.40;99.90
19781;DHT22;10050;55.492;13.506;2023-06-01T13:28:27;24.50;99.90
19781;DHT22;10050;55.492;13.506;2023-06-01T13:30:53;24.40;99.90
19781;DHT22;10050;55.492;13.506;2023-06-01T13:33:20;24.50;99.90
19781;DHT22;10050;55.492;13.506;2023-06-01T13:35:46;24.50;99.90
19781;DHT22;10050;55.492;13.506;2023-06-01T13:38:12;24.40;99.90
19781;DHT22;10050;55.492;13.506;2023-06-01T13:40:38;24.40;99.90
19781;DHT22;10050;55.492;13.506;2023-06-01T13:43:04;24.30;99.90
19781;DHT22;10050;55.492;13.506;2023-06-01T13:45:30;24.20;99.90
19781;DHT22;10050;55.492;13.506;2023-06-01T13:47:56;24.10;99.90
19781;DHT22;10050;55.492;13.506;2023-06-01T13:50:24;24.10;99.90
19781;DHT22;10050;55.492;13.506;2023-06-01T13:52:49;24.10;99.90
19781;DHT22;10050;55.492;13.506;2023-06-01T13:55:15;24.20;99.90
19781;DHT22;10050;55.492;13.506;2023-06-01T13:57:41;24.10;99.90
19781;DHT22;10050;55.492;13.506;2023-06-01T14:00:07;24.10;99.90
19781;DHT22;10050;55.492;13.506;2023-06-01T14:02:34;24.10;99.90
19781;DHT22;10050;55.492;13.506;2023-06-01T14:05:00;24.00;99.90
19781;DHT22;10050;55.492;13.506;2023-06-01T14:07:26;24.10;99.90
19781;DHT22;10050;55.492;13.506;2023-06-01T14:09:52;24.00;99.90
19781;DHT22;10050;55.492;13.506;2023-06-01T14:12:18;24.10;99.90
19781;DHT22;10050;55.492;13.506;2023-06-01T14:14:44;24.00;99.90
19781;DHT22;10050;55.492;13.506;2023-06-01T14:17:09;23.90;99.90
19781;DHT22;10050;55.492;13.506;2023-06-01T14:19:35;23.90;99.90
19781;DHT22;10050;55.492;13.506;2023-06-01T14:22:01;23.90;99.90
19781;DHT22;10050;55.492;13.506;2023-06-01T14:24:27;23.80;99.90
19781;DHT22;10050;55.492;13.506;2023-06-01T14:26:53;23.90;99.90
19781;DHT22;10050;55.492;13.506;2023-06-01T14:29:18;23.90;99.90
19781;DHT22;10050;55.492;13.506;2023-06-01T14:31:45;24.00;99.90
19781;DHT22;10050;55.492;13.506;2023-06-01T14:34:11;23.90;99.90
19781;DHT22;10050;55.492;13.506;2023-06-01T14:36:37;23.90;99.90
19781;DHT22;10050;55.492;13.506;2023-06-01T14:39:03;23.80;99.90
19781;DHT22;10050;55.492;13.506;2023-06-01T14:41:28;23.80;99.90
19781;DHT22;10050;55.492;13.506;2023-06-01T14:43:54;23.80;99.90
19781;DHT22;10050;55.492;13.506;2023-06-01T14:46:20;23.80;99.90
19781;DHT22;10050;55.492;13.506;2023-06-01T14:48:47;23.70;99.90
19781;DHT22;10050;55.492;13.506;2023-06-01T14:51:12;23.70;99.90
19781;DHT22;10050;55.492;13.506;2023-06-01T14:53:40;23.70;99.90
19781;DHT22;10050;55.492;13.506;2023-06-01T14:56:06;23.70;99.90
19781;DHT22;10050;55.492;13.506;2023-06-01T14:58:35;23.60;99.90
19781;DHT22;10050;55.492;13.506;2023-06-01T15:01:01;23.50;99.90
19781;DHT22;10050;55.492;13.506;2023-06-01T15:03:26;23.40;99.90
19781;DHT22;10050;55.492;13.506;2023-06-01T15:05:55;23.50;99.90
19781;DHT22;10050;55.492;13.506;2023-06-01T15:08:21;23.40;99.90
19781;DHT22;10050;55.492;13.506;2023-06-01T15:10:47;23.50;99.90
19781;DHT22;10050;55.492;13.506;2023-06-01T15:13:13;23.50;99.90
19781;DHT22;10050;55.492;13.506;2023-06-01T15:15:41;23.50;99.90
19781;DHT22;10050;55.492;13.506;2023-06-01T15:18:07;23.50;99.90
19781;DHT22;10050;55.492;13.506;2023-06-01T15:20:32;23.20;99.90
19781;DHT22;10050;55.492;13.506;2023-06-01T15:22:58;23.20;99.90
19781;DHT22;10050;55.492;13.506;2023-06-01T15:25:24;23.20;99.90
19781;DHT22;10050;55.492;13.506;2023-06-01T15:27:50;23.20;99.90
19781;DHT22;10050;55.492;13.506;2023-06-01T15:30:16;23.20;99.90
19781;DHT22;10050;55.492;13.506;2023-06-01T15:32:41;23.10;99.90
19781;DHT22;10050;55.492;13.506;2023-06-01T15:35:07;22.90;99.90
19781;DHT22;10050;55.492;13.506;2023-06-01T15:37:34;22.80;99.90
19781;DHT22;10050;55.492;13.506;2023-06-01T15:40:00;22.80;99.90
19781;DHT22;10050;55.492;13.506;2023-06-01T15:42:26;22.70;99.90
19781;DHT22;10050;55.492;13.506;2023-06-01T15:44:51;22.80;99.90
19781;DHT22;10050;55.492;13.506;2023-06-01T15:47:17;22.60;99.90
19781;DHT22;10050;55.492;13.506;2023-06-01T15:49:43;22.60;99.90
19781;DHT22;10050;55.492;13.506;2023-06-01T15:52:09;22.40;99.90